Laughlin Air Force Base
KDLF : now visible

Airfield :











YOU CAN JOIN US ON...

 
LOGIN :

Register | Disclaimer

   EN    FR    IT 

 









Legend :    VFR   Marginal VFR   IFR   Intensive IFR   Very Intensive IFR
Visi :
Ceiling :
>= 8 km
>= 3000ft
5 to 8 km
1000 to 3000 ft
1500m to 5 km
500 to 1000 ft
800 to 1500m
200 to 500 ft
< 800m
< 200 ft
Symbols :   Thunderstorms  Fog  Heavy snow  Heavy precipitations  Wind > 20 kt







- Airport Elevation : 1082 ft


KDLF - Laughlin Air Force Base

CURRENT METAR :
  • 182356Z AUTO 12010KT 10SM CLR 16/M03 A3002 RMK AO2 SLP166 56016

EXPIRED METARs :
  • 182256Z AUTO 14012KT 10SM FEW200 17/M04 A3003 RMK AO2 SLP168 T01681039 RVRNO
  • 182156Z AUTO 13009G19KT 10SM FEW200 16/M04 A3004 RMK AO2 SLP172

TAF TAF KDLF
Valid from the 18 at 18:00 until the 20 at 00:00 UTC


181800Z 1818/1924 13012KT 9999 SCT250 QNH3003INS
BECMG 1820/1821 15012KT 9999 SCT030 OVC200 QNH3002INS
BECMG 1906/1907 12009KT 9999 BKN020 OVC035 QNH2999INS
BECMG 1911/1912 12012G18KT 9999 OVC020 QNH2967INS
BECMG 1923/1924 27009KT 9999 OVC020 QNH2967INS TX19/1821Z TN06/1911Z
KZHU FIR / North America



MET'MAP, your aeronautical weather chart ! - Copyright ORBIFLY December 2007 - Disclaimer

ORBIFLY MET'MAP TEAM :

Programming & Development : Alexandra Zaïnal
Concept & Development : Baudouin d'Aumeries
Co-Development & Prog : Marc-Olivier Méhu
Technical & hardware support : Manuel Goepfert

Contact : metmap@orbifly.com




SOURCES & CREDITS :

   NOAA       Earth
Advisory